Language selection

Weather shortcuts

Point Separation mile 913 to Kittigazuit Bay mile 1081: Past 24 Hour Conditions

 

Great Slave Lake - 45141

04:00 AM MDT 15 July 2024Buoy position: 61.18N 115.3W
Disclaimer

This table is a summary of hourly weather conditions for the past 24 hours.
Please note that these observations might not always be representative of weather conditions over their associated marine area.

Date / Time
(MDT)
Wind(knots) Wave height(m) Wave period(s) Pressure(kPa) Air tempC) Water tempC)
15 July 2024
4:00 SSE 9 gusts 10 0.23 2.9 100.6 13 11
3:00 SE 5 gusts 6 0.24 2.8 100.6 14 11
2:00 WSW 5 gusts 6 0.27 3.0 100.5 16 11
1:00 WSW 8 gusts 10 0.28 2.9 100.5 17 11
0:00 SSE 6 gusts 8 0.23 3.0 100.5 15 11
14 July 2024
23:00 ESE 9 gusts 10 0.40 3.2 100.5 14 11
22:00 E 12 gusts 13 0.46 3.1 100.5 15 11
21:00 ESE 14 gusts 16 0.44 3.1 100.6 16 11
20:00 E 15 gusts 17 0.40 2.8 100.6 16 11
19:00 E 13 gusts 15 0.37 2.9 100.6 16 11
18:00 ESE 12 gusts 15 0.34 2.8 100.7 15 11
17:00 E 11 gusts 12 0.27 2.7 100.8 15 11
16:00 E 10 gusts 11 0.27 2.9 100.8 14 11
15:00 E 10 gusts 11 0.29 3.0 100.9 14 11
14:00 ESE 10 gusts 10 0.30 2.8 100.9 14 11
13:00 E 9 gusts 10 0.25 2.7 101.0 13 11
12:00 E 9 gusts 10 0.20 2.5 101.1 12 11
11:00 E 8 gusts 9 0.21 2.4 101.1 12 11
10:00 E 9 gusts 10 0.23 2.5 101.1 12 11
9:00 ESE 9 gusts 10 0.25 2.6 101.2 12 11
8:00 ESE 10 gusts 11 0.31 2.4 101.2 12 11
7:00 ESE 11 gusts 12 0.31 2.7 101.2 12 11
6:00 ESE 11 gusts 12 0.23 2.5 101.2 12 11
5:00 SE 10 gusts 11 0.22 2.4 101.2 12 11
4:00 SE 9 gusts 10 0.23 2.6 101.3 12 11

Zoom-in to make a selection

Map of Mackenzie - Mackenzie River marine weather areas Great Slave Lake - 45141 Great Slave Lake North Arm - 45150 Herschel Island Komakuk Beach Shingle Point Airport Aklavik Airport Cape Parry Airport Fort Good Hope Airport Tulita Airport Fort Providence Fort Reliance Fort Resolution Airport Fort Simpson Airport Hay River/Merlyn Carter Airport Inner Whaleback Rocks Inuvik Airport Keats Point Lutselke Airport Norman Wells Airport Paulatuk Airport Pelly Island Tuktoyaktuk Airport Wrigley Airport Yellowknife Airport Liverpool Bay Little Chicago Storm Hills Bathurst Inlet Kugluktuk Airport Hat Island Croker River Cambridge Bay Airport Cape Peel West Gateshead Island Stefansson Island Cape Providence Ulukhaktok Airport Sachs Harbour Airport Thomsen River Prairie River Egg Island Fort Chipewyan Airport Stony Rapids Airport Uranium City
Legend:
buoy Buoy
land station Land Station

Mackenzie - Mackenzie River Area

Another Region

Features

New Predicting and Alerting Coastal Flooding Program

Find out about coastal flooding coverage, forecasts and warnings in your region

Date modified: